Time;durP1;ratioP1;P1;durP2;ratioP2;P2;SDS_P1;SDS_P2;PMS_P1;PMS_P2;Temp;Humidity;BMP_temperature;BMP_pressure;BME280_temperature;BME280_humidity;BME280_pressure;Samples;Min_cycle;Max_cycle;Signal;HPM_P1;HPM_P2
2022/10/04 00:09:59;;;;;;;8.50;4.60;;;;;;;9.03;92.02;99385.95;435010;1273;201201;-61
2022/10/04 00:20:30;;;;;;;11.90;3.90;;;;;;;9.01;92.11;99374.16;446986;1271;143058;-62
2022/10/04 00:30:39;;;;;;;5.90;3.70;;;;;;;9.04;92.34;99368.78;447075;1273;144234;-62
2022/10/04 00:40:53;;;;;;;4.60;3.10;;;;;;;9.02;92.49;99357.02;446691;1275;143194;-62
2022/10/04 00:51:04;;;;;;;6.00;3.60;;;;;;;8.97;92.43;99349.46;446081;1273;143917;-62
2022/10/04 01:01:11;;;;;;;8.10;4.00;;;;;;;8.95;92.77;99356.35;446776;1273;141549;-62
2022/10/04 01:11:20;;;;;;;8.30;3.80;;;;;;;8.94;92.86;99351.87;442601;1274;143531;-61
2022/10/04 01:21:31;;;;;;;8.80;4.00;;;;;;;8.93;93.07;99349.16;446743;1274;141730;-62
2022/10/04 01:31:38;;;;;;;5.20;3.50;;;;;;;8.92;93.34;99355.54;446818;1274;145788;-61
2022/10/04 01:41:52;;;;;;;7.40;3.60;;;;;;;8.90;93.53;99349.20;445924;1275;145879;-61
2022/10/04 01:52:04;;;;;;;7.80;3.10;;;;;;;8.89;93.88;99348.02;446685;1273;142832;-62
2022/10/04 02:02:20;;;;;;;10.40;3.90;;;;;;;8.91;93.57;99352.61;444385;1273;142094;-61
2022/10/04 02:12:26;;;;;;;9.70;3.60;;;;;;;8.94;93.64;99356.08;436863;1274;142974;-61
2022/10/04 02:22:32;;;;;;;8.40;3.40;;;;;;;8.93;93.85;99355.80;444250;1274;142354;-62
2022/10/04 02:32:58;;;;;;;8.00;3.30;;;;;;;8.95;93.52;99356.70;445948;1275;142826;-61
2022/10/04 02:43:09;;;;;;;6.60;3.60;;;;;;;8.95;93.65;99347.50;446879;1273;142628;-62
2022/10/04 02:53:22;;;;;;;10.30;3.50;;;;;;;8.95;93.83;99355.35;446208;1273;143113;-61
2022/10/04 03:03:29;;;;;;;7.90;3.40;;;;;;;8.93;93.65;99355.27;447038;1273;142635;-62
2022/10/04 03:13:36;;;;;;;7.10;3.30;;;;;;;8.88;93.68;99361.69;431805;1273;141779;-63
2022/10/04 03:23:43;;;;;;;9.00;3.70;;;;;;;8.82;93.60;99360.67;440376;1273;142498;-62
2022/10/04 03:33:49;;;;;;;11.10;3.80;;;;;;;8.75;93.60;99368.59;445052;1270;142262;-61
2022/10/04 03:43:56;;;;;;;5.80;3.00;;;;;;;8.71;93.83;99384.70;446993;1272;142647;-61
2022/10/04 03:54:10;;;;;;;4.50;2.20;;;;;;;8.72;93.91;99391.62;447079;1272;143609;-62
2022/10/04 04:04:23;;;;;;;6.80;2.80;;;;;;;8.74;93.89;99391.86;446778;1274;142886;-62
2022/10/04 04:14:30;;;;;;;7.70;3.90;;;;;;;8.74;93.81;99386.30;429654;1273;141975;-61
2022/10/04 04:24:37;;;;;;;12.10;4.00;;;;;;;8.73;94.05;99393.48;432221;1273;142930;-63
2022/10/04 04:34:53;;;;;;;7.20;3.90;;;;;;;8.69;94.25;99399.84;429646;1273;142630;-61
2022/10/04 04:45:01;;;;;;;13.60;4.50;;;;;;;8.68;94.17;99411.23;428453;1273;143989;-61
2022/10/04 04:55:15;;;;;;;9.60;3.70;;;;;;;8.67;94.29;99421.92;437531;1275;142272;-61
2022/10/04 05:05:27;;;;;;;10.30;4.50;;;;;;;8.69;94.30;99434.88;446191;1273;184918;-62
2022/10/04 05:15:36;;;;;;;6.40;3.50;;;;;;;8.75;94.32;99446.09;432930;1273;143666;-62
2022/10/04 05:25:42;;;;;;;8.10;4.20;;;;;;;8.77;94.09;99452.40;436183;1275;200384;-61
2022/10/04 05:36:02;;;;;;;6.90;3.80;;;;;;;8.83;93.94;99461.11;434165;1273;142608;-61
2022/10/04 05:46:26;;;;;;;7.90;4.70;;;;;;;8.90;94.02;99478.89;446742;1272;142828;-62
2022/10/04 05:56:54;;;;;;;10.10;5.60;;;;;;;9.00;93.76;99490.67;445525;1275;143196;-61
2022/10/04 06:07:06;;;;;;;9.60;5.00;;;;;;;9.13;93.82;99494.65;446388;1275;143187;-61
2022/10/04 06:17:29;;;;;;;8.20;4.00;;;;;;;9.28;93.52;99511.78;446037;1274;142857;-63
2022/10/04 06:27:41;;;;;;;4.90;3.90;;;;;;;9.51;92.95;99517.20;443728;1274;142777;-62
2022/10/04 06:38:17;;;;;;;4.50;3.60;;;;;;;9.57;92.39;99532.90;433758;1274;144187;-61
2022/10/04 06:48:42;;;;;;;6.40;3.90;;;;;;;9.57;92.00;99552.83;430023;1273;141987;-62
2022/10/04 06:59:09;;;;;;;7.30;4.50;;;;;;;9.58;91.92;99567.47;447025;1273;142208;-62
2022/10/04 07:09:23;;;;;;;12.90;7.90;;;;;;;9.69;91.45;99579.02;447043;1273;142099;-61
2022/10/04 07:19:35;;;;;;;17.40;12.20;;;;;;;9.87;91.08;99590.20;432120;1273;194476;-59
2022/10/04 07:29:45;;;;;;;7.20;6.30;;;;;;;9.89;90.64;99602.98;446290;1273;143972;-61
2022/10/04 07:39:56;;;;;;;6.80;4.30;;;;;;;10.03;90.43;99607.90;433443;1273;141778;-62
2022/10/04 07:50:19;;;;;;;5.60;3.90;;;;;;;10.18;90.08;99617.48;447038;1273;198675;-62
2022/10/04 08:00:31;;;;;;;8.30;5.10;;;;;;;10.21;89.48;99628.86;446808;1274;143078;-62
2022/10/04 08:10:46;;;;;;;8.70;4.80;;;;;;;10.20;89.56;99637.84;447015;1272;143581;-62
2022/10/04 08:20:56;;;;;;;6.90;5.80;;;;;;;10.26;89.15;99645.01;446260;1273;144142;-62
2022/10/04 08:31:20;;;;;;;5.60;5.00;;;;;;;10.20;88.72;99660.77;445728;1273;144678;-59
2022/10/04 08:42:04;;;;;;;7.60;5.60;;;;;;;10.15;88.77;99675.75;446194;1272;142026;-63
2022/10/04 08:52:39;;;;;;;6.40;4.80;;;;;;;10.40;88.65;99686.48;446743;1273;350320;-63
2022/10/04 09:03:04;;;;;;;4.40;4.00;;;;;;;11.54;87.10;99678.09;446270;1273;143844;-62
2022/10/04 09:13:23;;;;;;;8.70;4.20;;;;;;;12.44;84.78;99689.55;447047;1273;142563;-62
2022/10/04 09:24:11;;;;;;;4.70;4.10;;;;;;;13.01;82.87;99696.98;446215;1272;144123;-62
2022/10/04 09:34:40;;;;;;;7.20;3.90;;;;;;;13.12;81.26;99708.42;439750;1272;142203;-62
2022/10/04 09:45:11;;;;;;;3.60;2.70;;;;;;;13.51;79.59;99709.73;446208;1273;145744;-62
2022/10/04 09:55:41;;;;;;;5.90;3.10;;;;;;;13.36;78.01;99717.86;447039;1273;142731;-63
2022/10/04 10:06:08;;;;;;;4.50;2.60;;;;;;;12.94;77.18;99728.59;446303;1273;142922;-62
2022/10/04 10:16:44;;;;;;;4.10;2.90;;;;;;;12.43;77.53;99743.69;447063;1273;153712;-62
2022/10/04 10:27:15;;;;;;;3.70;2.10;;;;;;;12.49;76.58;99753.14;445875;1275;142857;-61
2022/10/04 10:37:39;;;;;;;4.10;2.80;;;;;;;12.34;75.86;99760.05;442161;1273;142817;-62
2022/10/04 10:48:00;;;;;;;5.30;2.70;;;;;;;12.60;75.64;99767.10;446240;1273;142630;-62
2022/10/04 10:58:32;;;;;;;2.70;1.60;;;;;;;12.73;74.52;99770.63;446968;1273;141608;-62
2022/10/04 11:09:26;;;;;;;4.40;1.70;;;;;;;13.28;73.23;99776.20;446220;1272;142279;-63
2022/10/04 11:20:23;;;;;;;6.20;1.70;;;;;;;13.81;70.93;99785.23;447062;1273;143148;-64
2022/10/04 11:30:39;;;;;;;5.30;1.40;;;;;;;13.95;69.23;99789.15;447076;1273;142466;-62
2022/10/04 11:41:02;;;;;;;1.20;0.70;;;;;;;13.80;68.63;99799.60;431641;1273;142790;-62
2022/10/04 11:51:37;;;;;;;2.60;1.30;;;;;;;14.09;67.47;99798.48;447014;1273;142163;-62
2022/10/04 12:01:58;;;;;;;4.20;1.40;;;;;;;14.00;67.36;99819.06;447017;1272;143030;-62
2022/10/04 12:12:37;;;;;;;2.50;1.20;;;;;;;13.74;67.15;99825.50;445683;1275;143372;-62
2022/10/04 12:23:01;;;;;;;3.90;1.50;;;;;;;13.81;66.78;99828.67;447037;1271;142757;-63
2022/10/04 12:33:14;;;;;;;8.30;1.50;;;;;;;13.69;66.73;99837.46;445150;1272;147616;-63
2022/10/04 12:43:29;;;;;;;2.80;1.50;;;;;;;13.91;66.32;99837.48;446918;1272;142066;-61
2022/10/04 12:53:47;;;;;;;4.50;2.50;;;;;;;14.01;65.99;99843.05;446242;1270;143372;-62
2022/10/04 13:04:18;;;;;;;3.10;1.20;;;;;;;14.04;65.48;99850.60;447040;1273;143276;-62
2022/10/04 13:14:47;;;;;;;4.30;1.60;;;;;;;14.25;65.52;99854.18;446300;1273;143907;-61
2022/10/04 13:25:10;;;;;;;3.50;1.30;;;;;;;14.67;65.37;99849.81;447071;1273;142700;-63
2022/10/04 13:35:23;;;;;;;2.80;1.00;;;;;;;14.64;64.87;99855.45;440507;1274;142710;-67
2022/10/04 13:45:41;;;;;;;2.60;1.00;;;;;;;14.24;64.33;99849.63;446997;1273;142495;-67
2022/10/04 14:06:45;;;;;;;2.10;1.50;;;;;;;13.29;66.16;99871.61;447012;1272;142744;-67
2022/10/04 14:17:23;;;;;;;2.20;1.40;;;;;;;13.00;66.93;99873.13;446429;1273;143748;-68
2022/10/04 14:27:58;;;;;;;3.10;1.40;;;;;;;12.97;67.63;99879.42;429775;1272;143100;-65
2022/10/04 14:38:24;;;;;;;3.00;1.80;;;;;;;13.23;67.57;99882.56;441891;1270;143907;-67
2022/10/04 14:48:59;;;;;;;10.40;2.60;;;;;;;13.42;66.73;99881.77;447079;1273;144734;-68
2022/10/04 14:59:24;;;;;;;8.20;1.50;;;;;;;13.39;66.93;99888.64;440851;1271;143520;-67
2022/10/04 15:09:54;;;;;;;5.30;1.90;;;;;;;13.27;66.78;99890.36;447056;1273;142742;-67
2022/10/04 15:20:18;;;;;;;8.00;2.10;;;;;;;12.94;67.29;99897.41;434659;1273;142958;-67
2022/10/04 15:30:38;;;;;;;4.60;1.60;;;;;;;12.66;68.21;99900.69;430981;1273;143209;-68
2022/10/04 15:41:01;;;;;;;6.40;2.90;;;;;;;12.55;69.64;99908.09;431663;1274;142036;-69
2022/10/04 15:51:18;;;;;;;4.90;2.90;;;;;;;12.38;70.17;99917.29;430221;1275;212709;-70
2022/10/04 16:01:48;;;;;;;4.50;2.80;;;;;;;12.00;70.59;99919.05;430153;1273;142266;-67
2022/10/04 16:12:21;;;;;;;11.60;4.70;;;;;;;11.44;71.46;99931.30;429271;1275;142700;-67
2022/10/04 16:22:31;;;;;;;6.60;4.00;;;;;;;10.82;72.42;99939.79;430627;1273;141263;-67
2022/10/04 16:32:44;;;;;;;6.20;3.50;;;;;;;10.36;73.70;99954.88;429119;1273;142298;-68
2022/10/04 16:42:55;;;;;;;10.20;4.90;;;;;;;9.93;74.74;99960.71;430325;1273;141780;-68
2022/10/04 16:53:19;;;;;;;13.90;8.50;;;;;;;9.48;75.78;99970.48;430405;1272;144358;-69
2022/10/04 17:03:32;;;;;;;11.90;6.60;;;;;;;9.08;76.78;99972.89;430399;1273;142448;-69
2022/10/04 17:13:52;;;;;;;15.90;8.10;;;;;;;8.71;77.78;99975.95;429917;1274;141634;-69
2022/10/04 17:24:22;;;;;;;9.90;5.90;;;;;;;8.39;78.31;99984.52;429676;1271;143180;-68
2022/10/04 17:34:40;;;;;;;10.80;7.00;;;;;;;8.07;79.06;99984.44;430772;1273;144630;-67
2022/10/04 17:45:10;;;;;;;11.80;7.10;;;;;;;7.77;80.31;99987.38;428895;1273;142435;-68
2022/10/04 17:55:20;;;;;;;14.60;9.10;;;;;;;7.49;80.98;99987.41;430332;1273;142864;-71
2022/10/04 18:05:29;;;;;;;16.10;9.30;;;;;;;7.25;81.55;99993.69;429464;1274;146644;-71
2022/10/04 18:15:41;;;;;;;15.20;8.30;;;;;;;7.05;82.11;99999.94;429791;1273;142437;-71
2022/10/04 18:25:47;;;;;;;15.70;9.80;;;;;;;6.90;82.68;100015.73;430159;1273;142619;-70
2022/10/04 18:36:03;;;;;;;40.60;24.50;;;;;;;6.68;83.09;100020.95;429398;1273;143021;-69
2022/10/04 18:46:19;;;;;;;22.30;14.30;;;;;;;6.45;83.68;100032.16;430331;1273;153565;-71
2022/10/04 18:56:27;;;;;;;23.40;16.40;;;;;;;6.21;83.93;100052.04;429843;1273;143256;-71
2022/10/04 19:06:45;;;;;;;33.10;24.40;;;;;;;5.97;84.20;100056.20;430912;1274;144858;-72
2022/10/04 19:16:58;;;;;;;36.70;22.50;;;;;;;5.73;84.45;100064.70;430670;1273;141982;-69
2022/10/04 19:27:12;;;;;;;30.70;18.10;;;;;;;5.48;84.46;100068.73;429577;1275;142810;-68
2022/10/04 19:37:25;;;;;;;34.80;23.00;;;;;;;5.35;85.24;100073.35;429835;1273;143433;-69
2022/10/04 19:47:42;;;;;;;33.10;23.00;;;;;;;5.12;84.90;100080.02;429890;1273;187129;-70
2022/10/04 19:57:57;;;;;;;36.90;26.50;;;;;;;4.98;85.45;100083.41;430517;1273;143594;-71
2022/10/04 20:08:09;;;;;;;40.90;27.30;;;;;;;4.80;85.46;100077.25;430775;1273;142869;-71
2022/10/04 20:19:09;;;;;;;41.20;28.10;;;;;;;4.61;85.79;100092.92;430650;1273;142856;-70
2022/10/04 20:29:54;;;;;;;43.30;28.90;;;;;;;4.47;85.85;100108.08;432789;1273;142813;-70
2022/10/04 20:40:00;;;;;;;40.00;29.50;;;;;;;4.38;86.05;100109.41;431504;1273;142087;-68
2022/10/04 20:50:14;;;;;;;40.10;33.90;;;;;;;4.38;87.03;100104.70;430675;1273;220001;-66
2022/10/04 21:00:23;;;;;;;43.80;31.10;;;;;;;4.25;86.77;100118.95;431010;1273;214000;-71
2022/10/04 21:10:30;;;;;;;35.80;28.50;;;;;;;4.22;87.23;100120.95;431535;1273;143884;-70
2022/10/04 21:20:46;;;;;;;37.50;27.20;;;;;;;4.37;88.00;100121.39;429947;1274;187332;-69
2022/10/04 21:30:52;;;;;;;40.50;31.20;;;;;;;4.62;88.47;100112.12;430737;1273;144317;-70
2022/10/04 21:40:58;;;;;;;40.80;30.40;;;;;;;4.90;88.60;100116.65;430399;1273;142717;-71
2022/10/04 21:51:04;;;;;;;38.50;30.20;;;;;;;5.06;88.71;100118.22;440940;1273;143330;-69
2022/10/04 22:01:09;;;;;;;38.40;30.60;;;;;;;5.28;88.94;100123.39;430591;1273;146270;-70
2022/10/04 22:11:15;;;;;;;38.30;27.40;;;;;;;5.46;89.05;100142.78;429591;1273;143396;-69
2022/10/04 22:21:21;;;;;;;40.20;26.40;;;;;;;5.59;88.95;100146.70;429620;1276;143174;-70
2022/10/04 22:31:29;;;;;;;37.20;25.40;;;;;;;5.67;89.03;100152.47;429726;1275;142749;-69
2022/10/04 22:41:37;;;;;;;34.20;25.70;;;;;;;5.75;88.77;100162.30;429812;1273;146965;-70
2022/10/04 22:51:44;;;;;;;34.80;27.30;;;;;;;5.80;89.14;100176.37;430418;1273;142396;-70
2022/10/04 23:01:49;;;;;;;;;;;;;;;5.85;89.40;100170.27;431005;1273;142159;-69
2022/10/04 23:11:54;;;;;;;36.10;26.80;;;;;;;5.83;89.33;100167.76;429801;1273;129142;-71
2022/10/04 23:22:00;;;;;;;33.60;27.80;;;;;;;5.72;89.31;100158.58;430427;1273;142550;-70
2022/10/04 23:32:12;;;;;;;28.40;21.60;;;;;;;5.53;89.51;100140.62;430824;1274;142900;-68
2022/10/04 23:42:20;;;;;;;35.30;23.00;;;;;;;5.37;89.94;100129.18;436771;1273;142260;-69
2022/10/04 23:52:34;;;;;;;29.60;19.90;;;;;;;5.16;89.92;100127.63;430151;1273;142692;-69
